createdAt,value
2018-02-08T00:00:06.772Z,20.87
2018-02-08T00:02:34.545Z,20.60
2018-02-08T00:05:02.076Z,21.87
2018-02-08T00:07:29.664Z,19.30
2018-02-08T00:09:57.187Z,19.47
2018-02-08T00:12:24.698Z,20.87
2018-02-08T00:14:52.533Z,20.23
2018-02-08T00:17:20.064Z,19.93
2018-02-08T00:19:47.595Z,18.90
2018-02-08T00:22:27.049Z,17.40
2018-02-08T00:24:54.578Z,16.87
2018-02-08T00:27:22.131Z,15.70
2018-02-08T00:29:49.666Z,16.37
2018-02-08T00:32:17.216Z,13.37
2018-02-08T00:34:44.772Z,16.23
2018-02-08T00:37:12.285Z,14.37
2018-02-08T00:39:40.065Z,14.10
2018-02-08T00:42:07.583Z,14.70
2018-02-08T00:44:35.433Z,14.50
2018-02-08T00:47:02.977Z,14.93
2018-02-08T00:49:30.504Z,14.07
2018-02-08T00:51:58.016Z,13.87
2018-02-08T00:54:25.562Z,14.10
2018-02-08T00:56:53.434Z,13.47
2018-02-08T00:59:20.941Z,14.03
2018-02-08T01:01:48.478Z,13.97
2018-02-08T01:04:15.996Z,14.03
2018-02-08T01:06:43.505Z,13.70
2018-02-08T01:09:11.329Z,14.43
2018-02-08T01:11:38.855Z,13.83
2018-02-08T01:14:06.726Z,11.80
2018-02-08T01:16:34.278Z,14.50
2018-02-08T01:19:01.795Z,11.70
2018-02-08T01:21:29.363Z,13.90
2018-02-08T01:23:56.902Z,14.60
2018-02-08T01:26:24.416Z,14.47
2018-02-08T01:28:51.972Z,13.60
2018-02-08T01:31:19.542Z,13.60
2018-02-08T01:33:47.292Z,13.93
2018-02-08T01:36:14.818Z,14.90
2018-02-08T01:38:42.375Z,13.60
2018-02-08T01:41:10.132Z,14.53
2018-02-08T01:43:37.989Z,14.80
2018-02-08T01:46:05.535Z,15.40
2018-02-08T01:48:33.072Z,15.77
2018-02-08T01:51:00.600Z,13.20
2018-02-08T01:53:28.134Z,13.90
2018-02-08T01:55:55.651Z,14.67
2018-02-08T01:58:23.176Z,13.97
2018-02-08T02:00:50.754Z,15.07
2018-02-08T02:03:18.287Z,14.00
2018-02-08T02:05:45.828Z,12.80
2018-02-08T02:08:13.385Z,15.47
2018-02-08T02:10:40.907Z,13.67
2018-02-08T02:13:08.440Z,13.47
2018-02-08T02:15:36.003Z,13.43
2018-02-08T02:18:03.821Z,15.43
2018-02-08T02:20:31.369Z,14.30
2018-02-08T02:22:58.922Z,14.03
2018-02-08T02:25:26.442Z,13.40
2018-02-08T02:27:54.228Z,13.73
2018-02-08T02:30:21.757Z,14.10
2018-02-08T02:32:49.291Z,12.73
2018-02-08T02:35:16.811Z,13.90
2018-02-08T02:37:44.400Z,11.77
2018-02-08T02:40:11.910Z,13.30
2018-02-08T02:42:39.426Z,14.07
2018-02-08T02:45:06.957Z,13.43
2018-02-08T02:47:34.499Z,13.23
2018-02-08T02:50:02.052Z,14.20
2018-02-08T02:52:29.862Z,15.00
2018-02-08T02:54:57.389Z,13.90
2018-02-08T02:57:24.925Z,13.40
2018-02-08T02:59:52.501Z,14.27
2018-02-08T03:02:20.029Z,12.77
2018-02-08T03:04:47.562Z,15.52
2018-02-08T03:07:15.087Z,14.50
2018-02-08T03:09:42.621Z,14.30
2018-02-08T03:12:10.164Z,13.73
2018-02-08T03:14:38.011Z,14.80
2018-02-08T03:17:05.562Z,14.67
2018-02-08T03:19:33.078Z,18.33
2018-02-08T03:22:00.619Z,19.27
2018-02-08T03:24:28.155Z,19.10
2018-02-08T03:26:55.930Z,17.40
2018-02-08T03:29:23.450Z,17.70
2018-02-08T03:31:51.282Z,18.33
2018-02-08T03:34:19.096Z,19.43
2018-02-08T03:36:46.615Z,21.55
2018-02-08T03:39:14.180Z,21.25
2018-02-08T03:41:41.770Z,22.58
2018-02-08T03:44:09.277Z,22.17
2018-02-08T03:46:36.843Z,18.65
2018-02-08T03:49:04.364Z,19.73
2018-02-08T03:51:31.892Z,20.23
2018-02-08T03:53:59.726Z,22.75
2018-02-08T03:56:27.222Z,18.80
2018-02-08T03:58:54.743Z,20.37
2018-02-08T04:01:22.273Z,20.23
2018-02-08T04:03:49.788Z,19.93
2018-02-08T04:06:17.302Z,19.33
2018-02-08T04:08:44.867Z,20.40
2018-02-08T04:11:12.394Z,22.37
2018-02-08T04:13:39.920Z,24.47
2018-02-08T04:16:07.463Z,24.10
2018-02-08T04:18:34.993Z,26.20
2018-02-08T04:21:02.516Z,23.50
2018-02-08T04:23:30.053Z,20.20
2018-02-08T04:25:57.569Z,20.97
2018-02-08T04:28:25.101Z,21.83
2018-02-08T04:30:52.655Z,21.27
2018-02-08T04:33:20.190Z,21.17
2018-02-08T04:35:47.717Z,20.93
2018-02-08T04:38:18.119Z,19.60
2018-02-08T04:40:57.452Z,19.43
2018-02-08T04:43:36.643Z,19.40
2018-02-08T04:46:15.981Z,19.50
2018-02-08T04:48:43.537Z,21.60
2018-02-08T04:51:11.069Z,21.73
2018-02-08T04:53:38.965Z,21.40
2018-02-08T04:56:06.721Z,20.30
2018-02-08T04:58:34.297Z,20.20
2018-02-08T05:01:01.950Z,21.67
2018-02-08T05:03:29.532Z,20.62
2018-02-08T05:05:57.072Z,18.90
2018-02-08T05:08:24.639Z,20.17
2018-02-08T05:10:52.172Z,19.57
2018-02-08T05:13:19.700Z,21.03
2018-02-08T05:15:47.309Z,20.13
2018-02-08T05:18:14.835Z,19.60
2018-02-08T05:20:42.355Z,21.37
2018-02-08T05:23:09.892Z,22.40
2018-02-08T05:25:37.401Z,24.23
2018-02-08T05:28:04.924Z,23.07
2018-02-08T05:30:32.467Z,20.23
2018-02-08T05:32:59.998Z,20.17
2018-02-08T05:35:27.532Z,20.30
2018-02-08T05:37:55.073Z,21.63
2018-02-08T05:40:22.943Z,20.13
2018-02-08T05:42:50.466Z,21.67
2018-02-08T05:45:18.006Z,19.13
2018-02-08T05:47:45.529Z,21.10
2018-02-08T05:50:13.037Z,23.07
2018-02-08T05:52:40.841Z,23.57
2018-02-08T05:55:08.361Z,24.93
2018-02-08T05:57:36.161Z,24.30
2018-02-08T06:00:05.873Z,21.10
2018-02-08T06:02:33.488Z,22.60
2018-02-08T06:05:01.013Z,24.20
2018-02-08T06:07:28.567Z,23.73
2018-02-08T06:09:56.102Z,22.40
2018-02-08T06:12:23.642Z,25.77
2018-02-08T06:14:51.179Z,22.67
2018-02-08T06:17:18.688Z,22.60
2018-02-08T06:19:46.528Z,22.40
2018-02-08T06:22:14.064Z,24.80
2018-02-08T06:24:41.594Z,27.87
2018-02-08T06:27:09.117Z,31.15
2018-02-08T06:29:36.731Z,37.10
2018-02-08T06:32:04.313Z,43.97
2018-02-08T06:34:31.922Z,41.70
2018-02-08T06:36:59.443Z,47.50
2018-02-08T06:39:26.996Z,40.50
2018-02-08T06:41:54.558Z,40.35
2018-02-08T06:44:22.092Z,40.47
2018-02-08T06:46:49.637Z,32.60
2018-02-08T06:49:17.243Z,32.33
2018-02-08T06:51:45.066Z,35.33
2018-02-08T06:54:12.628Z,37.47
2018-02-08T06:56:40.144Z,36.87
2018-02-08T06:59:07.677Z,38.27
2018-02-08T07:01:35.209Z,36.33
2018-02-08T07:04:02.751Z,33.55
2018-02-08T07:06:30.271Z,35.30
2018-02-08T07:08:57.831Z,32.03
2018-02-08T07:11:25.344Z,33.70
2018-02-08T07:13:53.131Z,35.67
2018-02-08T07:16:20.672Z,35.13
2018-02-08T07:18:48.193Z,32.70
2018-02-08T07:21:15.736Z,35.58
2018-02-08T07:23:43.310Z,36.75
2018-02-08T07:26:10.845Z,38.63
2018-02-08T07:28:38.361Z,36.30
2018-02-08T07:31:05.894Z,33.00
2018-02-08T07:33:33.430Z,36.13
2018-02-08T07:36:00.987Z,33.13
2018-02-08T07:38:28.795Z,31.75
2018-02-08T07:40:56.404Z,34.73
2018-02-08T07:43:23.923Z,30.35
2018-02-08T07:45:51.489Z,34.80
2018-02-08T07:48:19.337Z,30.10
2018-02-08T07:50:47.004Z,34.70
2018-02-08T07:53:14.558Z,27.30
2018-02-08T07:55:42.487Z,26.90
2018-02-08T07:58:15.115Z,23.48
2018-02-08T08:00:42.782Z,23.77
2018-02-08T08:03:10.292Z,23.23
2018-02-08T08:05:37.811Z,22.70
2018-02-08T08:08:05.751Z,23.20
2018-02-08T08:10:34.121Z,23.37
2018-02-08T08:13:01.930Z,25.95
2018-02-08T08:15:29.479Z,23.40
2018-02-08T08:17:57.020Z,24.40
2018-02-08T08:20:24.541Z,23.80
2018-02-08T08:22:52.562Z,25.33
2018-02-08T08:25:20.097Z,25.03
2018-02-08T08:27:47.619Z,22.77
2018-02-08T08:30:15.178Z,24.50
2018-02-08T08:32:42.698Z,27.83
2018-02-08T08:35:10.219Z,26.57
2018-02-08T08:37:37.762Z,24.93
2018-02-08T08:40:05.304Z,26.40
2018-02-08T08:42:33.129Z,23.47
2018-02-08T08:45:00.974Z,25.30
2018-02-08T08:47:28.481Z,25.70
2018-02-08T08:49:55.994Z,25.43
2018-02-08T08:52:23.535Z,24.20
2018-02-08T08:54:51.070Z,24.67
2018-02-08T08:57:18.874Z,24.07
2018-02-08T08:59:46.415Z,22.70
2018-02-08T09:02:13.976Z,23.03
2018-02-08T09:04:41.489Z,26.17
2018-02-08T09:07:09.020Z,23.90
2018-02-08T09:09:36.568Z,25.27
2018-02-08T09:12:04.087Z,24.70
2018-02-08T09:14:31.608Z,27.30
2018-02-08T09:16:59.277Z,23.80
2018-02-08T09:19:26.789Z,26.90
2018-02-08T09:21:54.941Z,26.10
2018-02-08T09:24:22.479Z,24.37
2018-02-08T09:26:50.022Z,24.47
2018-02-08T09:29:17.561Z,26.10
2018-02-08T09:31:45.110Z,26.67
2018-02-08T09:34:12.732Z,28.80
2018-02-08T09:36:40.249Z,28.83
2018-02-08T09:39:07.793Z,29.23
2018-02-08T09:41:35.310Z,30.67
2018-02-08T09:44:02.841Z,30.57
2018-02-08T09:46:30.399Z,28.57
2018-02-08T09:48:57.936Z,31.00
2018-02-08T09:51:25.457Z,31.30
2018-02-08T09:53:53.378Z,30.27
2018-02-08T09:56:21.244Z,33.90
2018-02-08T09:58:48.762Z,29.23
2018-02-08T10:01:16.298Z,30.50
2018-02-08T10:03:43.824Z,32.20
2018-02-08T10:06:11.347Z,32.20
2018-02-08T10:08:38.892Z,34.37
2018-02-08T10:11:06.457Z,32.77
2018-02-08T10:13:33.989Z,32.77
2018-02-08T10:16:01.559Z,32.87
2018-02-08T10:18:29.083Z,36.97
2018-02-08T10:20:56.948Z,38.73
2018-02-08T10:23:24.503Z,37.00
2018-02-08T10:25:52.366Z,36.87
2018-02-08T10:28:19.896Z,35.60
2018-02-08T10:30:47.450Z,40.10
2018-02-08T10:33:14.984Z,40.93
2018-02-08T10:35:42.519Z,37.40
2018-02-08T10:38:10.370Z,38.27
2018-02-08T10:40:37.889Z,33.77
2018-02-08T10:43:05.413Z,35.83
2018-02-08T10:45:32.973Z,37.30
2018-02-08T10:48:00.536Z,32.73
2018-02-08T10:50:28.068Z,35.30
2018-02-08T10:52:55.655Z,35.70
2018-02-08T10:55:23.177Z,35.67
2018-02-08T10:57:50.711Z,36.00
2018-02-08T11:00:18.612Z,43.63
2018-02-08T11:02:46.135Z,42.97
2018-02-08T11:05:13.693Z,38.20
2018-02-08T11:07:41.242Z,38.07
2018-02-08T11:10:08.762Z,38.07
2018-02-08T11:12:36.269Z,40.50
2018-02-08T11:15:03.814Z,40.70
2018-02-08T11:17:31.335Z,36.30
2018-02-08T11:19:58.894Z,33.90
2018-02-08T11:22:26.445Z,33.43
2018-02-08T11:24:53.982Z,33.87
2018-02-08T11:27:21.495Z,32.40
2018-02-08T11:29:49.167Z,33.70
2018-02-08T11:32:16.713Z,32.67
2018-02-08T11:34:44.227Z,27.90
2018-02-08T11:37:11.744Z,32.03
2018-02-08T11:39:39.292Z,32.30
2018-02-08T11:42:06.828Z,34.03
2018-02-08T11:44:34.363Z,32.57
2018-02-08T11:47:01.919Z,31.43
2018-02-08T11:49:29.432Z,33.80
2018-02-08T11:51:57.006Z,33.73
2018-02-08T11:54:24.549Z,34.83
2018-02-08T11:56:52.084Z,35.87
2018-02-08T11:59:19.605Z,36.00
2018-02-08T12:01:47.145Z,38.70
2018-02-08T12:04:14.668Z,36.10
2018-02-08T12:06:42.186Z,35.90
2018-02-08T12:09:09.742Z,35.13
2018-02-08T12:11:37.278Z,36.40
2018-02-08T12:14:04.789Z,31.07
2018-02-08T12:16:32.599Z,30.10
2018-02-08T12:19:00.124Z,29.67
2018-02-08T12:21:27.645Z,30.63
2018-02-08T12:23:55.190Z,30.10
2018-02-08T12:26:22.731Z,27.00
2018-02-08T12:28:50.264Z,27.10
2018-02-08T12:31:17.820Z,28.90
2018-02-08T12:33:45.348Z,27.77
2018-02-08T12:36:12.863Z,29.13
2018-02-08T12:38:40.420Z,29.27
2018-02-08T12:41:08.113Z,28.90
2018-02-08T12:43:35.630Z,28.77
2018-02-08T12:46:03.342Z,27.97
2018-02-08T12:48:30.871Z,28.70
2018-02-08T12:50:58.422Z,28.47
2018-02-08T12:53:25.988Z,27.43
2018-02-08T12:55:53.509Z,29.10
2018-02-08T12:58:21.029Z,33.10
2018-02-08T13:00:48.593Z,28.30
2018-02-08T13:03:16.114Z,27.90
2018-02-08T13:05:43.915Z,28.77
2018-02-08T13:08:11.488Z,28.03
2018-02-08T13:10:39.076Z,25.70
2018-02-08T13:13:06.634Z,21.70
2018-02-08T13:15:34.188Z,20.60
2018-02-08T13:18:01.728Z,22.70
2018-02-08T13:20:29.253Z,21.90
2018-02-08T13:22:56.810Z,21.30
2018-02-08T13:25:24.703Z,24.13
2018-02-08T13:27:52.241Z,21.50
2018-02-08T13:30:19.922Z,16.20
2018-02-08T13:32:47.468Z,14.67
2018-02-08T13:35:15.014Z,14.00
2018-02-08T13:37:42.580Z,11.27
2018-02-08T13:43:12.260Z,9.40
2018-02-08T13:45:39.804Z,10.57
2018-02-08T13:48:24.300Z,10.10
2018-02-08T13:51:01.768Z,8.90
2018-02-08T13:53:35.027Z,9.23
2018-02-08T13:56:17.439Z,6.80
2018-02-08T14:01:50.447Z,6.03
2018-02-08T14:04:17.973Z,6.77
2018-02-08T14:06:45.505Z,9.30
2018-02-08T14:09:13.056Z,7.80
2018-02-08T14:11:40.789Z,6.80
2018-02-08T14:14:08.328Z,7.90
2018-02-08T14:16:35.884Z,8.17
2018-02-08T14:19:07.342Z,6.47
2018-02-08T14:21:34.946Z,4.77
2018-02-08T14:24:02.784Z,6.47
2018-02-08T14:26:31.580Z,7.80
2018-02-08T14:29:00.820Z,13.53
2018-02-08T14:31:28.361Z,7.33
2018-02-08T14:33:55.923Z,6.83
2018-02-08T14:36:23.556Z,12.60
2018-02-08T14:38:51.110Z,11.53
2018-02-08T14:41:18.653Z,11.27
2018-02-08T14:43:46.177Z,9.43
2018-02-08T14:46:13.722Z,8.47
2018-02-08T14:48:41.281Z,8.70
2018-02-08T14:51:08.800Z,8.47
2018-02-08T14:53:36.338Z,7.60
2018-02-08T14:56:03.867Z,11.07
2018-02-08T14:58:31.452Z,8.70
2018-02-08T15:00:59.017Z,9.30
2018-02-08T15:03:26.537Z,10.10
2018-02-08T15:05:54.066Z,8.63
2018-02-08T15:08:23.899Z,11.10
2018-02-08T15:10:51.438Z,9.30
2018-02-08T15:13:22.821Z,13.43
2018-02-08T15:15:50.478Z,11.63
2018-02-08T15:18:21.397Z,14.63
2018-02-08T15:20:48.948Z,13.00
2018-02-08T15:23:16.533Z,13.80
2018-02-08T15:25:44.050Z,15.93
2018-02-08T15:28:16.241Z,15.27
2018-02-08T15:30:43.929Z,21.33
2018-02-08T15:33:11.715Z,21.73
2018-02-08T15:35:39.239Z,22.50
2018-02-08T15:38:07.950Z,23.77
2018-02-08T15:40:35.538Z,22.07
2018-02-08T15:43:09.278Z,21.17
2018-02-08T15:45:41.610Z,21.07
2018-02-08T15:48:13.278Z,22.33
2018-02-08T15:50:58.497Z,21.57
2018-02-08T15:53:29.638Z,23.43
2018-02-08T15:55:57.620Z,28.17
2018-02-08T15:58:25.211Z,34.00
2018-02-08T16:00:52.808Z,39.27
2018-02-08T16:03:20.391Z,29.70
2018-02-08T16:05:47.921Z,34.07
2018-02-08T16:08:15.474Z,39.10
2018-02-08T16:10:44.231Z,29.33
2018-02-08T16:13:12.859Z,32.57
2018-02-08T16:15:40.490Z,29.70
2018-02-08T16:18:08.301Z,28.47
2018-02-08T16:20:35.871Z,29.30
2018-02-08T16:23:03.426Z,35.37
2018-02-08T16:25:31.188Z,30.40
2018-02-08T16:27:58.749Z,36.53
2018-02-08T16:30:26.308Z,38.87
2018-02-08T16:32:54.115Z,47.87
2018-02-08T16:35:21.984Z,55.40
2018-02-08T16:37:49.565Z,60.50
2018-02-08T16:40:17.115Z,56.20
2018-02-08T16:42:45.840Z,64.10
2018-02-08T16:45:13.408Z,58.87
2018-02-08T16:47:40.955Z,115.60
2018-02-08T16:50:08.493Z,113.00
2018-02-08T16:52:36.186Z,108.00
2018-02-08T16:55:03.756Z,82.40
2018-02-08T16:57:31.269Z,45.40
2018-02-08T16:59:58.840Z,82.60
2018-02-08T17:02:26.409Z,103.20
2018-02-08T17:04:53.972Z,86.87
2018-02-08T17:07:21.499Z,83.70
2018-02-08T17:09:49.073Z,69.70
2018-02-08T17:12:16.856Z,80.73
2018-02-08T17:14:45.368Z,72.70
2018-02-08T17:17:12.978Z,76.03
2018-02-08T17:19:40.606Z,64.90
2018-02-08T17:22:08.126Z,72.27
2018-02-08T17:24:35.633Z,60.57
2018-02-08T17:27:03.172Z,60.40
2018-02-08T17:29:30.711Z,42.00
2018-02-08T17:31:58.263Z,48.30
2018-02-08T17:34:25.807Z,35.50
2018-02-08T17:36:53.824Z,32.83
2018-02-08T17:39:21.339Z,36.60
2018-02-08T17:41:50.241Z,36.83
2018-02-08T17:44:17.890Z,37.27
2018-02-08T17:46:45.434Z,42.60
2018-02-08T17:49:13.441Z,32.30
2018-02-08T17:51:41.006Z,45.40
2018-02-08T17:54:08.563Z,38.53
2018-02-08T17:56:36.184Z,44.60
2018-02-08T17:59:03.910Z,55.60
2018-02-08T18:01:31.471Z,41.27
2018-02-08T18:03:59.157Z,52.57
2018-02-08T18:06:26.704Z,48.20
2018-02-08T18:08:54.264Z,54.53
2018-02-08T18:11:21.792Z,54.23
2018-02-08T18:13:49.596Z,75.40
2018-02-08T18:16:18.345Z,82.30
2018-02-08T18:18:45.892Z,89.03
2018-02-08T18:21:14.566Z,99.33
2018-02-08T18:23:42.156Z,104.97
2018-02-08T18:26:09.698Z,106.20
2018-02-08T18:28:37.264Z,110.13
2018-02-08T18:31:04.878Z,99.23
2018-02-08T18:33:32.751Z,108.30
2018-02-08T18:36:00.379Z,106.03
2018-02-08T18:38:27.962Z,102.50
2018-02-08T18:40:55.512Z,115.47
2018-02-08T18:43:23.097Z,133.90
2018-02-08T18:45:50.762Z,115.50
2018-02-08T18:48:18.294Z,86.70
2018-02-08T18:50:45.847Z,94.53
2018-02-08T18:53:13.472Z,69.60
2018-02-08T18:55:41.012Z,63.43
2018-02-08T18:58:08.561Z,60.30
2018-02-08T19:00:36.686Z,70.37
2018-02-08T19:03:04.528Z,88.00
2018-02-08T19:05:32.057Z,86.90
2018-02-08T19:08:00.023Z,84.30
2018-02-08T19:10:27.554Z,80.57
2018-02-08T19:12:55.474Z,73.80
2018-02-08T19:15:23.917Z,63.53
2018-02-08T19:17:52.272Z,60.80
2018-02-08T19:20:19.807Z,69.10
2018-02-08T19:22:47.370Z,69.47
2018-02-08T19:25:15.189Z,66.40
2018-02-08T19:27:43.912Z,64.23
2018-02-08T19:30:11.458Z,58.00
2018-02-08T19:32:39.898Z,60.33
2018-02-08T19:35:08.193Z,67.50
2018-02-08T19:37:36.091Z,60.70
2018-02-08T19:40:04.967Z,59.67
2018-02-08T19:42:34.377Z,63.07
2018-02-08T19:45:02.312Z,56.47
2018-02-08T19:47:29.857Z,55.10
2018-02-08T19:49:59.671Z,70.70
2018-02-08T19:52:28.008Z,75.23
2018-02-08T19:54:55.596Z,69.43
2018-02-08T19:57:23.891Z,74.70
2018-02-08T19:59:51.566Z,76.10
2018-02-08T20:02:19.395Z,74.60
2018-02-08T20:04:46.941Z,72.17
2018-02-08T20:07:14.702Z,77.00
2018-02-08T20:09:44.970Z,69.60
2018-02-08T20:12:13.468Z,68.37
2018-02-08T20:14:41.929Z,68.57
2018-02-08T20:17:09.501Z,71.07
2018-02-08T20:19:37.834Z,63.73
2018-02-08T20:22:05.441Z,63.63
2018-02-08T20:24:33.445Z,57.63
2018-02-08T20:27:03.467Z,62.70
2018-02-08T20:29:32.002Z,62.53
2018-02-08T20:31:59.731Z,72.70
2018-02-08T20:34:27.519Z,70.23
2018-02-08T20:36:58.533Z,72.80
2018-02-08T20:39:26.103Z,73.00
2018-02-08T20:41:55.242Z,73.80
2018-02-08T20:44:22.784Z,75.80
2018-02-08T20:46:50.338Z,72.57
2018-02-08T20:49:18.691Z,83.37
2018-02-08T20:51:47.400Z,70.17
2018-02-08T20:54:15.064Z,81.20
2018-02-08T20:56:42.597Z,135.13
2018-02-08T20:59:10.151Z,144.30
2018-02-08T21:01:37.774Z,146.57
2018-02-08T21:04:05.301Z,142.57
2018-02-08T21:06:32.826Z,148.80
2018-02-08T21:09:00.412Z,163.70
2018-02-08T21:11:27.966Z,141.30
2018-02-08T21:13:55.540Z,149.03
2018-02-08T21:16:23.110Z,149.57
2018-02-08T21:18:50.660Z,165.97
2018-02-08T21:21:18.208Z,160.47
2018-02-08T21:23:45.811Z,161.73
2018-02-08T21:26:13.421Z,187.50
2018-02-08T21:28:40.955Z,178.40
2018-02-08T21:31:09.163Z,160.70
2018-02-08T21:33:37.543Z,156.17
2018-02-08T21:36:05.373Z,110.60
2018-02-08T21:38:32.932Z,68.57
2018-02-08T21:41:00.471Z,138.00
2018-02-08T21:43:28.036Z,151.53
2018-02-08T21:45:55.679Z,141.40
2018-02-08T21:48:23.458Z,123.60
2018-02-08T21:50:51.029Z,118.63
2018-02-08T21:53:18.600Z,129.80
2018-02-08T21:55:46.131Z,137.27
2018-02-08T21:58:13.659Z,143.33
2018-02-08T22:00:41.251Z,143.50
2018-02-08T22:03:09.033Z,143.60
2018-02-08T22:05:36.560Z,101.53
2018-02-08T22:08:04.119Z,102.60
2018-02-08T22:10:31.684Z,101.17
2018-02-08T22:12:59.227Z,107.83
2018-02-08T22:15:26.783Z,115.00
2018-02-08T22:17:54.348Z,113.53
2018-02-08T22:20:21.873Z,95.53
2018-02-08T22:22:49.444Z,77.27
2018-02-08T22:25:16.975Z,95.67
2018-02-08T22:27:44.532Z,101.33
2018-02-08T22:30:12.164Z,76.23
2018-02-08T22:32:39.735Z,90.83
2018-02-08T22:35:07.261Z,88.63
2018-02-08T22:37:34.949Z,94.90
2018-02-08T22:40:02.489Z,75.30
2018-02-08T22:42:30.041Z,106.50
2018-02-08T22:44:57.873Z,98.53
2018-02-08T22:47:26.052Z,114.17
2018-02-08T22:49:53.719Z,86.17
2018-02-08T22:52:21.306Z,82.30
2018-02-08T22:54:48.869Z,79.07
2018-02-08T22:57:16.415Z,71.27
2018-02-08T22:59:44.033Z,73.37
2018-02-08T23:02:11.990Z,82.57
2018-02-08T23:04:39.509Z,79.47
2018-02-08T23:07:07.029Z,77.63
2018-02-08T23:09:35.794Z,72.73
2018-02-08T23:12:03.328Z,65.87
2018-02-08T23:14:30.943Z,53.10
2018-02-08T23:16:58.809Z,50.53
2018-02-08T23:19:26.339Z,57.37
2018-02-08T23:21:53.854Z,51.20
2018-02-08T23:24:21.393Z,49.80
2018-02-08T23:26:49.233Z,36.60
2018-02-08T23:29:16.754Z,52.67
2018-02-08T23:31:44.306Z,43.23
2018-02-08T23:34:12.801Z,39.90
2018-02-08T23:36:40.313Z,40.00
2018-02-08T23:39:07.842Z,36.57
2018-02-08T23:41:35.377Z,36.33
2018-02-08T23:44:03.210Z,28.47
2018-02-08T23:46:30.749Z,18.40
2018-02-08T23:48:58.301Z,12.77
2018-02-08T23:51:25.822Z,10.27
2018-02-08T23:53:53.357Z,9.80
2018-02-08T23:56:20.888Z,10.73
2018-02-08T23:58:48.404Z,10.50
